createdAt,value
2023-05-07T00:04:40.698Z,17.80
2023-05-07T00:09:43.929Z,17.80
2023-05-07T00:14:47.055Z,17.70
2023-05-07T00:19:51.593Z,17.70
2023-05-07T00:24:54.905Z,17.60
2023-05-07T00:29:58.042Z,17.60
2023-05-07T00:35:02.489Z,17.50
2023-05-07T00:40:08.380Z,17.50
2023-05-07T00:45:12.084Z,17.40
2023-05-07T00:50:16.630Z,17.40
2023-05-07T00:55:20.335Z,17.30
2023-05-07T01:00:23.507Z,17.30
2023-05-07T01:05:29.302Z,17.20
2023-05-07T01:10:32.954Z,17.10
2023-05-07T01:15:36.110Z,17.00
2023-05-07T01:20:40.741Z,16.80
2023-05-07T01:25:45.241Z,16.70
2023-05-07T01:30:51.753Z,16.60
2023-05-07T01:35:56.029Z,16.60
2023-05-07T01:41:01.181Z,16.50
2023-05-07T01:46:06.782Z,16.50
2023-05-07T01:51:10.991Z,16.50
2023-05-07T01:56:15.479Z,16.50
2023-05-07T02:01:18.629Z,16.50
2023-05-07T02:06:22.093Z,16.50
2023-05-07T02:11:26.807Z,16.40
2023-05-07T02:16:29.994Z,16.40
2023-05-07T02:21:33.141Z,16.40
2023-05-07T02:26:37.680Z,16.30
2023-05-07T02:31:40.843Z,16.30
2023-05-07T02:36:44.028Z,16.20
2023-05-07T02:41:48.540Z,16.20
2023-05-07T02:46:51.626Z,16.20
2023-05-07T02:51:54.785Z,16.10
2023-05-07T02:56:59.341Z,16.10
2023-05-07T03:02:02.578Z,16.10
2023-05-07T03:07:05.722Z,16.00
2023-05-07T03:12:10.318Z,16.00
2023-05-07T03:17:13.513Z,16.00
2023-05-07T03:22:17.003Z,16.00
2023-05-07T03:27:21.476Z,16.00
2023-05-07T03:32:24.922Z,15.90
2023-05-07T03:37:28.328Z,15.90
2023-05-07T03:42:32.846Z,15.90
2023-05-07T03:47:35.966Z,15.90
2023-05-07T03:52:39.129Z,15.90
2023-05-07T03:57:43.625Z,15.80
2023-05-07T04:02:46.939Z,15.80
2023-05-07T04:07:50.326Z,15.80
2023-05-07T04:12:54.874Z,15.70
2023-05-07T04:17:58.454Z,15.70
2023-05-07T04:23:02.166Z,15.60
2023-05-07T04:28:07.067Z,15.30
2023-05-07T04:33:10.345Z,15.40
2023-05-07T04:38:13.556Z,15.30
2023-05-07T04:43:18.165Z,15.30
2023-05-07T04:48:21.694Z,15.30
2023-05-07T04:53:24.872Z,15.30
2023-05-07T04:58:32.778Z,15.20
2023-05-07T05:03:36.374Z,15.20
2023-05-07T05:08:39.598Z,15.30
2023-05-07T05:13:44.117Z,15.30
2023-05-07T05:18:47.465Z,15.30
2023-05-07T05:23:50.646Z,15.40
2023-05-07T05:28:55.157Z,15.40
2023-05-07T05:33:58.262Z,15.40
2023-05-07T05:39:01.409Z,15.40
2023-05-07T05:44:06.055Z,15.40
2023-05-07T05:49:09.648Z,15.50
2023-05-07T05:54:12.870Z,15.50
2023-05-07T05:59:17.511Z,15.60
2023-05-07T06:04:21.000Z,15.60
2023-05-07T06:09:24.195Z,15.70
2023-05-07T06:14:28.736Z,15.80
2023-05-07T06:19:32.048Z,15.90
2023-05-07T06:24:35.115Z,16.00
2023-05-07T06:29:39.643Z,16.10
2023-05-07T06:34:43.068Z,16.30
2023-05-07T06:39:46.171Z,16.40
2023-05-07T06:44:50.650Z,16.60
2023-05-07T06:49:53.810Z,16.70
2023-05-07T06:54:56.995Z,16.90
2023-05-07T07:00:01.471Z,17.10
2023-05-07T07:05:04.991Z,17.20
2023-05-07T07:10:09.473Z,17.40
2023-05-07T07:15:15.155Z,17.50
2023-05-07T07:20:18.374Z,17.60
2023-05-07T07:25:21.657Z,17.80
2023-05-07T07:30:27.131Z,18.00
2023-05-07T07:35:30.462Z,18.10
2023-05-07T07:40:34.135Z,18.30
2023-05-07T07:45:41.023Z,18.50
2023-05-07T07:50:46.145Z,18.80
2023-05-07T07:55:49.551Z,19.00
2023-05-07T08:00:55.599Z,19.20
2023-05-07T08:05:58.719Z,19.40
2023-05-07T08:11:02.887Z,19.70
2023-05-07T08:16:07.920Z,19.90
2023-05-07T08:21:11.058Z,20.20
2023-05-07T08:26:14.259Z,20.40
2023-05-07T08:31:19.272Z,20.70
2023-05-07T08:36:22.611Z,21.00
2023-05-07T08:41:25.998Z,21.20
2023-05-07T08:46:34.413Z,21.50
2023-05-07T08:51:38.559Z,21.70
2023-05-07T08:56:42.136Z,21.80
2023-05-07T09:01:46.799Z,22.00
2023-05-07T09:06:52.186Z,22.30
2023-05-07T09:12:00.843Z,22.40
2023-05-07T09:17:05.348Z,22.60
2023-05-07T09:22:09.128Z,22.70
2023-05-07T09:27:14.440Z,22.80
2023-05-07T09:32:18.972Z,23.00
2023-05-07T09:37:22.178Z,23.10
2023-05-07T09:42:26.578Z,23.30
2023-05-07T09:47:34.758Z,23.40
2023-05-07T09:52:38.991Z,23.60
2023-05-07T09:57:44.116Z,23.70
2023-05-07T10:02:50.331Z,23.90
2023-05-07T10:07:54.896Z,24.00
2023-05-07T10:12:58.336Z,24.20
2023-05-07T10:18:03.225Z,24.40
2023-05-07T10:23:07.491Z,24.50
2023-05-07T10:28:13.927Z,24.70
2023-05-07T10:33:22.560Z,24.80
2023-05-07T10:38:26.489Z,24.90
2023-05-07T10:43:42.040Z,25.00
2023-05-07T10:49:12.274Z,25.20
2023-05-07T10:54:28.270Z,25.20
2023-05-07T10:59:41.820Z,25.30
2023-05-07T11:04:46.616Z,25.30
2023-05-07T11:10:02.294Z,25.40
2023-05-07T11:15:06.236Z,25.50
2023-05-07T11:20:12.570Z,25.60
2023-05-07T11:25:20.519Z,25.80
2023-05-07T11:30:24.419Z,25.90
2023-05-07T11:35:29.559Z,26.00
2023-05-07T11:40:32.747Z,26.00
2023-05-07T11:45:38.029Z,26.20
2023-05-07T11:50:53.044Z,26.30
2023-05-07T11:55:57.234Z,26.40
2023-05-07T12:01:00.636Z,26.40
2023-05-07T12:06:07.563Z,26.40
2023-05-07T12:11:12.514Z,26.40
2023-05-07T12:16:16.390Z,26.40
2023-05-07T12:21:21.030Z,26.50
2023-05-07T12:26:25.098Z,26.50
2023-05-07T12:31:28.357Z,26.50
2023-05-07T12:36:40.518Z,26.50
2023-05-07T12:41:56.455Z,26.50
2023-05-07T12:46:59.781Z,26.50
2023-05-07T12:52:04.398Z,26.60
2023-05-07T12:57:09.977Z,26.60
2023-05-07T13:02:13.288Z,26.60
2023-05-07T13:07:17.766Z,26.60
2023-05-07T13:12:20.933Z,26.60
2023-05-07T13:17:24.117Z,26.50
2023-05-07T13:22:28.660Z,26.50
2023-05-07T13:27:32.188Z,26.50
2023-05-07T13:32:35.318Z,26.50
2023-05-07T13:37:39.781Z,26.50
2023-05-07T13:42:42.936Z,26.50
2023-05-07T13:47:46.838Z,26.50
2023-05-07T13:52:52.449Z,26.50
2023-05-07T13:57:58.938Z,26.50
2023-05-07T14:03:02.102Z,26.50
2023-05-07T14:08:06.702Z,26.50
2023-05-07T14:13:09.874Z,26.50
2023-05-07T14:18:13.017Z,26.40
2023-05-07T14:23:18.745Z,26.40
2023-05-07T14:28:21.803Z,26.40
2023-05-07T14:33:24.887Z,26.40
2023-05-07T14:38:29.391Z,26.40
2023-05-07T14:43:32.539Z,26.40
2023-05-07T14:48:35.745Z,26.40
2023-05-07T14:53:40.667Z,26.50
2023-05-07T14:58:43.897Z,26.40
2023-05-07T15:03:47.192Z,26.50
2023-05-07T15:08:51.865Z,26.50
2023-05-07T15:13:55.011Z,26.40
2023-05-07T15:18:58.145Z,26.40
2023-05-07T15:24:02.806Z,26.40
2023-05-07T15:29:11.075Z,26.40
2023-05-07T15:34:15.918Z,26.30
2023-05-07T15:39:21.143Z,26.30
2023-05-07T15:44:28.354Z,26.30
2023-05-07T15:49:31.529Z,26.20
2023-05-07T15:54:36.131Z,26.20
2023-05-07T15:59:39.248Z,26.20
2023-05-07T16:04:42.551Z,26.10
2023-05-07T16:09:47.443Z,26.10
2023-05-07T16:14:51.871Z,26.00
2023-05-07T16:19:54.991Z,26.00
2023-05-07T16:24:59.680Z,26.00
2023-05-07T16:30:03.289Z,25.90
2023-05-07T16:35:07.211Z,25.90
2023-05-07T16:40:12.764Z,25.80
2023-05-07T16:45:16.452Z,25.80
2023-05-07T16:50:19.845Z,25.70
2023-05-07T16:55:24.406Z,25.70
2023-05-07T17:00:31.938Z,25.60
2023-05-07T17:05:38.650Z,25.50
2023-05-07T17:10:45.658Z,25.50
2023-05-07T17:15:49.084Z,25.40
2023-05-07T17:20:52.935Z,25.40
2023-05-07T17:25:57.540Z,25.20
2023-05-07T17:31:00.833Z,25.20
2023-05-07T17:36:04.186Z,25.10
2023-05-07T17:41:08.722Z,25.00
2023-05-07T17:46:11.855Z,24.90
2023-05-07T17:51:15.119Z,24.80
2023-05-07T17:56:20.248Z,24.70
2023-05-07T18:01:23.579Z,24.60
2023-05-07T18:06:26.793Z,24.50
2023-05-07T18:11:32.390Z,24.50
2023-05-07T18:16:36.154Z,24.40
2023-05-07T18:21:39.587Z,24.30
2023-05-07T18:26:44.209Z,24.20
2023-05-07T18:31:47.442Z,24.10
2023-05-07T18:36:50.652Z,24.10
2023-05-07T18:41:55.194Z,24.00
2023-05-07T18:46:58.582Z,23.90
2023-05-07T18:52:02.123Z,23.80
2023-05-07T18:57:06.727Z,23.70
2023-05-07T19:02:09.890Z,23.60
2023-05-07T19:07:13.026Z,23.50
2023-05-07T19:12:17.508Z,23.40
2023-05-07T19:17:23.068Z,23.30
2023-05-07T19:22:26.510Z,23.20
2023-05-07T19:27:31.061Z,23.10
2023-05-07T19:32:34.379Z,23.00
2023-05-07T19:37:37.895Z,22.80
2023-05-07T19:42:42.629Z,22.70
2023-05-07T19:47:45.884Z,22.60
2023-05-07T19:52:49.043Z,22.50
2023-05-07T19:57:53.650Z,22.40
2023-05-07T20:02:57.053Z,22.30
2023-05-07T20:08:00.766Z,22.20
2023-05-07T20:13:05.465Z,22.10
2023-05-07T20:18:08.782Z,22.10
2023-05-07T20:23:12.035Z,22.00
2023-05-07T20:28:16.642Z,22.00
2023-05-07T20:33:19.964Z,21.90
2023-05-07T20:38:23.342Z,21.90
2023-05-07T20:43:27.940Z,21.80
2023-05-07T20:48:32.043Z,21.80
2023-05-07T20:53:37.567Z,21.70
2023-05-07T20:58:42.169Z,21.70
2023-05-07T21:03:45.393Z,21.60
2023-05-07T21:08:48.480Z,21.50
2023-05-07T21:13:53.054Z,21.50
2023-05-07T21:18:56.212Z,21.40
2023-05-07T21:23:59.466Z,21.30
2023-05-07T21:29:04.091Z,21.30
2023-05-07T21:34:07.818Z,21.20
2023-05-07T21:39:12.149Z,21.20
2023-05-07T21:44:16.692Z,21.10
2023-05-07T21:49:19.832Z,21.10
2023-05-07T21:54:23.006Z,21.10
2023-05-07T21:59:27.515Z,21.00
2023-05-07T22:04:30.642Z,21.00
2023-05-07T22:09:33.745Z,21.00
2023-05-07T22:14:38.267Z,20.90
2023-05-07T22:19:41.422Z,20.90
2023-05-07T22:24:44.674Z,20.80
2023-05-07T22:29:49.115Z,20.80
2023-05-07T22:34:52.216Z,20.70
2023-05-07T22:39:55.361Z,20.70
2023-05-07T22:45:00.041Z,20.60
2023-05-07T22:50:05.285Z,20.60
2023-05-07T22:55:09.481Z,20.50
2023-05-07T23:00:15.492Z,20.50
2023-05-07T23:05:18.904Z,20.50
2023-05-07T23:10:22.031Z,20.50
2023-05-07T23:15:26.763Z,20.40
2023-05-07T23:20:29.933Z,20.40
2023-05-07T23:25:33.088Z,20.30
2023-05-07T23:30:37.619Z,20.30
2023-05-07T23:35:40.713Z,20.30
2023-05-07T23:40:43.919Z,20.20
2023-05-07T23:45:48.664Z,20.20
2023-05-07T23:50:51.841Z,20.10
2023-05-07T23:55:55.030Z,20.10
